^^
Station Historical Data
Daily Summary for August 21, 2017 Units:  Both    English   Metric
« Previous Day
Next Day »
Daily Weekly Monthly Yearly Custom
  High: Low: Average:
Temperature: TemperatureF °F /  -17.8 °C 42.6 °F /  5.9 °C 60.9 °F /  16.1 °C
Dew Point: DewpointF °F /  -17.8 °C 13.6 °F /  -10.2 °C 17.8 °F /  -7.9 °C
Humidity: Humidity% 9% 21%
Wind Speed: WindSpeedMPHmph /  0km/h - 0.8mph /  1.3km/h
Wind Gust: WindSpeedGustMPHmph /  0km/h - -
Wind- - SW
Pressure: PressureIn in /  0 hPa 30.24 in /  1023.9 hPa -
Precipitation: 0.00 in /  0 mm    
Historical Graphs
 
 
Tabular Data for August 21, 2017
Time Temperature Dew Point Pressure Wind Wind Speed Wind Gust Humidity Rainfall Rate (Hourly) solar Conditions
TemperatureF °F /  -17.8 °C DewpointF °F /  -17.8 °C PressureInin /  0hPa Calm     Humidity% HourlyPrecipInin /  0mm SolarRadiationWatts/m^2 W/m2 Conditions
00:02 49.3 °F /  9.6 °C 14.0 °F /  -10 °C 30.40in /  1029.3hPa Calm     24% 0.00in /  0mm 0.0 W/m2
00:04 49.3 °F /  9.6 °C 14.0 °F /  -10 °C 30.40in /  1029.3hPa Calm   1.0mph /  1.6km/h 24% 0.00in /  0mm 0.0 W/m2
00:10 49.3 °F /  9.6 °C 14.0 °F /  -10 °C 30.40in /  1029.3hPa East 2.0mph /  3.2km/h 2.0mph /  3.2km/h 24% 0.00in /  0mm 0.0 W/m2
00:16 49.3 °F /  9.6 °C 14.0 °F /  -10 °C 30.40in /  1029.3hPa Calm     24% 0.00in /  0mm 0.0 W/m2
00:22 49.5 °F /  9.7 °C 14.2 °F /  -9.9 °C 30.40in /  1029.3hPa Calm     24% 0.00in /  0mm 0.0 W/m2
00:28 49.6 °F /  9.8 °C 14.4 °F /  -9.8 °C 30.40in /  1029.3hPa Calm     24% 0.00in /  0mm 0.0 W/m2
00:34 49.5 °F /  9.7 °C 14.2 °F /  -9.9 °C 30.39in /  1029hPa Calm     24% 0.00in /  0mm 0.0 W/m2
00:40 48.9 °F /  9.4 °C 13.6 °F /  -10.2 °C 30.39in /  1029hPa Calm     24% 0.00in /  0mm 0.0 W/m2
00:46 48.6 °F /  9.2 °C 15.3 °F /  -9.3 °C 30.39in /  1029hPa Calm     26% 0.00in /  0mm 0.0 W/m2
00:52 48.0 °F /  8.9 °C 15.6 °F /  -9.1 °C 30.39in /  1029hPa Calm     27% 0.00in /  0mm 0.0 W/m2
00:58 47.7 °F /  8.7 °C 14.4 °F /  -9.8 °C 30.39in /  1029hPa Calm     26% 0.00in /  0mm 0.0 W/m2
01:04 47.1 °F /  8.4 °C 14.9 °F /  -9.5 °C 30.39in /  1029hPa Calm     27% 0.00in /  0mm 0.0 W/m2
01:10 46.8 °F /  8.2 °C 15.4 °F /  -9.2 °C 30.38in /  1028.7hPa Calm     28% 0.00in /  0mm 0.0 W/m2
01:16 46.6 °F /  8.1 °C 15.3 °F /  -9.3 °C 30.38in /  1028.7hPa Calm     28% 0.00in /  0mm 0.0 W/m2
01:22 46.2 °F /  7.9 °C 14.9 °F /  -9.5 °C 30.38in /  1028.7hPa Calm     28% 0.00in /  0mm 0.0 W/m2
01:28 46.0 °F /  7.8 °C 15.6 °F /  -9.1 °C 30.38in /  1028.7hPa Calm     29% 0.00in /  0mm 0.0 W/m2
01:34 45.9 °F /  7.7 °C 16.2 °F /  -8.8 °C 30.38in /  1028.7hPa Calm     30% 0.00in /  0mm 0.0 W/m2
01:40 45.7 °F /  7.6 °C 16.7 °F /  -8.5 °C 30.38in /  1028.7hPa Calm     31% 0.00in /  0mm 0.0 W/m2
01:46 45.5 °F /  7.5 °C 16.5 °F /  -8.6 °C 30.38in /  1028.7hPa Calm     31% 0.00in /  0mm 0.0 W/m2
01:52 45.3 °F /  7.4 °C 18.0 °F /  -7.8 °C 30.38in /  1028.7hPa Calm     33% 0.00in /  0mm 0.0 W/m2
01:58 45.3 °F /  7.4 °C 18.0 °F /  -7.8 °C 30.38in /  1028.7hPa Calm     33% 0.00in /  0mm 0.0 W/m2
02:04 45.3 °F /  7.4 °C 18.7 °F /  -7.4 °C 30.38in /  1028.7hPa Calm     34% 0.00in /  0mm 0.0 W/m2
02:10 45.1 °F /  7.3 °C 17.8 °F /  -7.9 °C 30.37in /  1028.3hPa Calm     33% 0.00in /  0mm 0.0 W/m2
02:16 45.1 °F /  7.3 °C 17.8 °F /  -7.9 °C 30.37in /  1028.3hPa Calm     33% 0.00in /  0mm 0.0 W/m2
02:22 45.1 °F /  7.3 °C 18.5 °F /  -7.5 °C 30.37in /  1028.3hPa Calm     34% 0.00in /  0mm 0.0 W/m2
02:28 45.0 °F /  7.2 °C 18.9 °F /  -7.3 °C 30.37in /  1028.3hPa Calm     35% 0.00in /  0mm 0.0 W/m2
02:34 45.0 °F /  7.2 °C 18.9 °F /  -7.3 °C 30.37in /  1028.3hPa Calm     35% 0.00in /  0mm 0.0 W/m2
02:40 44.8 °F /  7.1 °C 18.9 °F /  -7.3 °C 30.37in /  1028.3hPa Calm     35% 0.00in /  0mm 0.0 W/m2
02:47 44.8 °F /  7.1 °C 18.9 °F /  -7.3 °C 30.37in /  1028.3hPa Calm     35% 0.00in /  0mm 0.0 W/m2
02:53 44.8 °F /  7.1 °C 18.9 °F /  -7.3 °C 30.37in /  1028.3hPa Calm     35% 0.00in /  0mm 0.0 W/m2
02:59 44.4 °F /  6.9 °C 19.0 °F /  -7.2 °C 30.37in /  1028.3hPa Calm     36% 0.00in /  0mm 0.0 W/m2
03:05 44.4 °F /  6.9 °C 18.5 °F /  -7.5 °C 30.37in /  1028.3hPa Calm     35% 0.00in /  0mm 0.0 W/m2
03:11 44.4 °F /  6.9 °C 19.0 °F /  -7.2 °C 30.36in /  1028hPa Calm     36% 0.00in /  0mm 0.0 W/m2
03:17 44.2 °F /  6.8 °C 18.3 °F /  -7.6 °C 30.36in /  1028hPa Calm     35% 0.00in /  0mm 0.0 W/m2
03:23 44.1 °F /  6.7 °C 18.9 °F /  -7.3 °C 30.36in /  1028hPa Calm     36% 0.00in /  0mm 0.0 W/m2
03:30 43.9 °F /  6.6 °C 18.7 °F /  -7.4 °C 30.36in /  1028hPa Calm     36% 0.00in /  0mm 0.0 W/m2
03:36 43.9 °F /  6.6 °C 19.2 °F /  -7.1 °C 30.36in /  1028hPa Calm     37% 0.00in /  0mm 0.0 W/m2
03:42 43.7 °F /  6.5 °C 19.8 °F /  -6.8 °C 30.36in /  1028hPa Calm     38% 0.00in /  0mm 0.0 W/m2
03:48 43.5 °F /  6.4 °C 19.0 °F /  -7.2 °C 30.36in /  1028hPa Calm     37% 0.00in /  0mm 0.0 W/m2
03:54 43.5 °F /  6.4 °C 19.6 °F /  -6.9 °C 30.36in /  1028hPa Calm     38% 0.00in /  0mm 0.0 W/m2
04:00 43.5 °F /  6.4 °C 20.1 °F /  -6.6 °C 30.36in /  1028hPa Calm     39% 0.00in /  0mm 0.0 W/m2
04:06 43.3 °F /  6.3 °C 20.1 °F /  -6.6 °C 30.36in /  1028hPa Calm     39% 0.00in /  0mm 0.0 W/m2
04:12 43.3 °F /  6.3 °C 20.1 °F /  -6.6 °C 30.36in /  1028hPa Calm     39% 0.00in /  0mm 0.0 W/m2
04:18 43.3 °F /  6.3 °C 20.7 °F /  -6.3 °C 30.36in /  1028hPa Calm     40% 0.00in /  0mm 0.0 W/m2
04:24 43.2 °F /  6.2 °C 20.5 °F /  -6.4 °C 30.36in /  1028hPa Calm     40% 0.00in /  0mm 0.0 W/m2
04:31 43.2 °F /  6.2 °C 19.2 °F /  -7.1 °C 30.35in /  1027.7hPa Calm     38% 0.00in /  0mm 0.0 W/m2
04:37 43.2 °F /  6.2 °C 19.2 °F /  -7.1 °C 30.35in /  1027.7hPa Calm     38% 0.00in /  0mm 0.0 W/m2
04:43 43.0 °F /  6.1 °C 19.8 °F /  -6.8 °C 30.35in /  1027.7hPa Calm     39% 0.00in /  0mm 0.0 W/m2
04:49 43.0 °F /  6.1 °C 19.8 °F /  -6.8 °C 30.35in /  1027.7hPa Calm     39% 0.00in /  0mm 0.0 W/m2
04:55 43.0 °F /  6.1 °C 19.8 °F /  -6.8 °C 30.35in /  1027.7hPa Calm     39% 0.00in /  0mm 0.0 W/m2
05:01 43.0 °F /  6.1 °C 20.3 °F /  -6.5 °C 30.35in /  1027.7hPa Calm     40% 0.00in /  0mm 0.0 W/m2
05:07 42.8 °F /  6 °C 20.1 °F /  -6.6 °C 30.36in /  1028hPa Calm     40% 0.00in /  0mm 0.0 W/m2
05:13 42.6 °F /  5.9 °C 19.9 °F /  -6.7 °C 30.36in /  1028hPa Calm     40% 0.00in /  0mm 0.0 W/m2
05:20 42.6 °F /  5.9 °C 19.9 °F /  -6.7 °C 30.36in /  1028hPa Calm     40% 0.00in /  0mm 0.0 W/m2
05:26 42.6 °F /  5.9 °C 19.9 °F /  -6.7 °C 30.36in /  1028hPa Calm     40% 0.00in /  0mm 0.0 W/m2
05:32 43.0 °F /  6.1 °C 19.8 °F /  -6.8 °C 30.36in /  1028hPa Calm     39% 0.00in /  0mm 0.0 W/m2
05:38 43.0 °F /  6.1 °C 20.3 °F /  -6.5 °C 30.36in /  1028hPa Calm   1.0mph /  1.6km/h 40% 0.00in /  0mm 0.0 W/m2
05:44 43.3 °F /  6.3 °C 19.4 °F /  -7 °C 30.36in /  1028hPa Calm     38% 0.00in /  0mm 0.0 W/m2
05:51 43.9 °F /  6.6 °C 18.7 °F /  -7.4 °C 30.37in /  1028.3hPa Calm     36% 0.00in /  0mm 0.0 W/m2
05:56 44.2 °F /  6.8 °C 19.0 °F /  -7.2 °C 30.37in /  1028.3hPa Calm     36% 0.00in /  0mm 0.0 W/m2
06:03 44.8 °F /  7.1 °C 18.9 °F /  -7.3 °C 30.37in /  1028.3hPa Calm     35% 0.00in /  0mm 0.0 W/m2
06:07 45.0 °F /  7.2 °C 19.6 °F /  -6.9 °C 30.37in /  1028.3hPa Calm     36% 0.00in /  0mm 0.0 W/m2
06:13 45.1 °F /  7.3 °C 18.5 °F /  -7.5 °C 30.37in /  1028.3hPa Calm     34% 0.00in /  0mm 0.0 W/m2
06:19 45.3 °F /  7.4 °C 19.2 °F /  -7.1 °C 30.37in /  1028.3hPa Calm   2.0mph /  3.2km/h 35% 0.00in /  0mm 7.0 W/m2
06:25 45.7 °F /  7.6 °C 18.9 °F /  -7.3 °C 30.38in /  1028.7hPa Calm     34% 0.00in /  0mm 11.0 W/m2
06:27 45.7 °F /  7.6 °C 18.1 °F /  -7.7 °C 30.38in /  1028.7hPa Calm     33% 0.00in /  0mm 12.0 W/m2
06:33 45.9 °F /  7.7 °C 19.0 °F /  -7.2 °C 30.38in /  1028.7hPa Calm   1.0mph /  1.6km/h 34% 0.00in /  0mm 16.0 W/m2
06:40 46.0 °F /  7.8 °C 18.5 °F /  -7.5 °C 30.38in /  1028.7hPa Calm     33% 0.00in /  0mm 19.0 W/m2
06:46 46.2 °F /  7.9 °C 18.7 °F /  -7.4 °C 30.38in /  1028.7hPa Calm   1.0mph /  1.6km/h 33% 0.00in /  0mm 21.0 W/m2
06:52 46.6 °F /  8.1 °C 19.0 °F /  -7.2 °C 30.38in /  1028.7hPa Calm   3.0mph /  4.8km/h 33% 0.00in /  0mm 25.0 W/m2
06:58 47.1 °F /  8.4 °C 18.7 °F /  -7.4 °C 30.38in /  1028.7hPa Calm   2.0mph /  3.2km/h 32% 0.00in /  0mm 26.0 W/m2
07:04 47.5 °F /  8.6 °C 19.0 °F /  -7.2 °C 30.38in /  1028.7hPa Calm   1.0mph /  1.6km/h 32% 0.00in /  0mm 28.0 W/m2
07:10 48.0 °F /  8.9 °C 19.6 °F /  -6.9 °C 30.38in /  1028.7hPa Calm   1.0mph /  1.6km/h 32% 0.00in /  0mm 32.0 W/m2
07:16 48.6 °F /  9.2 °C 19.9 °F /  -6.7 °C 30.38in /  1028.7hPa Calm   1.0mph /  1.6km/h 32% 0.00in /  0mm 33.0 W/m2
07:23 48.9 °F /  9.4 °C 20.3 °F /  -6.5 °C 30.38in /  1028.7hPa Calm     32% 0.00in /  0mm 35.0 W/m2
07:29 49.5 °F /  9.7 °C 21.6 °F /  -5.8 °C 30.39in /  1029hPa Calm     33% 0.00in /  0mm 39.0 W/m2
07:35 50.2 °F /  10.1 °C 20.7 °F /  -6.3 °C 30.39in /  1029hPa Calm     31% 0.00in /  0mm 40.0 W/m2
07:41 51.1 °F /  10.6 °C 21.6 °F /  -5.8 °C 30.39in /  1029hPa Calm   1.0mph /  1.6km/h 31% 0.00in /  0mm 42.0 W/m2
07:47 51.6 °F /  10.9 °C 21.2 °F /  -6 °C 30.39in /  1029hPa Calm     30% 0.00in /  0mm 44.0 W/m2
07:53 52.7 °F /  11.5 °C 21.4 °F /  -5.9 °C 30.39in /  1029hPa Calm   2.0mph /  3.2km/h 29% 0.00in /  0mm 51.0 W/m2
07:59 53.8 °F /  12.1 °C 21.4 °F /  -5.9 °C 30.39in /  1029hPa ENE 2.0mph /  3.2km/h 2.0mph /  3.2km/h 28% 0.00in /  0mm 47.0 W/m2
08:05 54.9 °F /  12.7 °C 21.6 °F /  -5.8 °C 30.39in /  1029hPa Calm     27% 0.00in /  0mm 49.0 W/m2
08:11 56.1 °F /  13.4 °C 21.7 °F /  -5.7 °C 30.39in /  1029hPa Calm   2.0mph /  3.2km/h 26% 0.00in /  0mm 51.0 W/m2
08:18 58.3 °F /  14.6 °C 21.6 °F /  -5.8 °C 30.39in /  1029hPa Calm     24% 0.00in /  0mm 54.0 W/m2
08:24 59.4 °F /  15.2 °C 20.5 °F /  -6.4 °C 30.39in /  1029hPa Calm     22% 0.00in /  0mm 56.0 W/m2
08:30 61.2 °F /  16.2 °C 20.8 °F /  -6.2 °C 30.39in /  1029hPa Calm     21% 0.00in /  0mm 60.0 W/m2
08:36 62.4 °F /  16.9 °C 20.8 °F /  -6.2 °C 30.40in /  1029.3hPa Calm     20% 0.00in /  0mm 452.0 W/m2
08:42 63.9 °F /  17.7 °C 19.6 °F /  -6.9 °C 30.40in /  1029.3hPa Calm   3.0mph /  4.8km/h 18% 0.00in /  0mm 473.0 W/m2
08:48 65.7 °F /  18.7 °C 21.0 °F /  -6.1 °C 30.40in /  1029.3hPa Calm     18% 0.00in /  0mm 492.0 W/m2
08:54 67.5 °F /  19.7 °C 19.8 °F /  -6.8 °C 30.40in /  1029.3hPa Calm   2.0mph /  3.2km/h 16% 0.00in /  0mm 513.0 W/m2
09:00 69.1 °F /  20.6 °C 19.4 °F /  -7 °C 30.40in /  1029.3hPa Calm   1.0mph /  1.6km/h 15% 0.00in /  0mm 531.0 W/m2
09:07 70.0 °F /  21.1 °C 18.5 °F /  -7.5 °C 30.40in /  1029.3hPa Calm     14% 0.00in /  0mm 547.0 W/m2
09:13 71.1 °F /  21.7 °C 19.4 °F /  -7 °C 30.40in /  1029.3hPa Calm   1.0mph /  1.6km/h 14% 0.00in /  0mm 564.0 W/m2
09:19 71.8 °F /  22.1 °C 18.3 °F /  -7.6 °C 30.40in /  1029.3hPa Calm   1.0mph /  1.6km/h 13% 0.00in /  0mm 578.0 W/m2
09:25 72.9 °F /  22.7 °C 19.2 °F /  -7.1 °C 30.40in /  1029.3hPa Calm     13% 0.00in /  0mm 596.0 W/m2
09:31 73.8 °F /  23.2 °C 18.0 °F /  -7.8 °C 30.40in /  1029.3hPa Calm     12% 0.00in /  0mm 605.0 W/m2
09:37 73.9 °F /  23.3 °C 18.1 °F /  -7.7 °C 30.40in /  1029.3hPa Calm   1.0mph /  1.6km/h 12% 0.00in /  0mm 629.0 W/m2
09:43 73.8 °F /  23.2 °C 16.0 °F /  -8.9 °C 30.40in /  1029.3hPa Calm   1.0mph /  1.6km/h 11% 0.00in /  0mm 640.0 W/m2
09:50 73.6 °F /  23.1 °C 17.8 °F /  -7.9 °C 30.39in /  1029hPa Calm   1.0mph /  1.6km/h 12% 0.00in /  0mm 652.0 W/m2
09:56 74.1 °F /  23.4 °C 18.3 °F /  -7.6 °C 30.39in /  1029hPa WNW 2.9mph /  4.7km/h 3.0mph /  4.8km/h 12% 0.00in /  0mm 670.0 W/m2
10:02 74.8 °F /  23.8 °C 16.9 °F /  -8.4 °C 30.39in /  1029hPa Calm   2.0mph /  3.2km/h 11% 0.00in /  0mm 682.0 W/m2
10:08 75.6 °F /  24.2 °C 17.4 °F /  -8.1 °C 30.39in /  1029hPa NNE 4.0mph /  6.4km/h 6.0mph /  9.7km/h 11% 0.00in /  0mm 703.0 W/m2
10:14 75.7 °F /  24.3 °C 17.4 °F /  -8.1 °C 30.39in /  1029hPa Calm   7.0mph /  11.3km/h 11% 0.00in /  0mm 714.0 W/m2
10:20 75.9 °F /  24.4 °C 17.6 °F /  -8 °C 30.39in /  1029hPa NNE 0.9mph /  1.4km/h 5.0mph /  8km/h 11% 0.00in /  0mm 719.0 W/m2
10:26 76.5 °F /  24.7 °C 15.8 °F /  -9 °C 30.39in /  1029hPa NNW 2.9mph /  4.7km/h 5.0mph /  8km/h 10% 0.00in /  0mm 735.0 W/m2
10:33 76.6 °F /  24.8 °C 16.0 °F /  -8.9 °C 30.38in /  1028.7hPa WSW 0.9mph /  1.4km/h 3.0mph /  4.8km/h 10% 0.00in /  0mm 737.0 W/m2
10:39 76.6 °F /  24.8 °C 16.0 °F /  -8.9 °C 30.38in /  1028.7hPa Calm   4.0mph /  6.4km/h 10% 0.00in /  0mm 751.0 W/m2
10:45 76.5 °F /  24.7 °C 15.8 °F /  -9 °C 30.37in /  1028.3hPa NNE 0.9mph /  1.4km/h 5.0mph /  8km/h 10% 0.00in /  0mm 770.0 W/m2
10:51 76.8 °F /  24.9 °C 16.2 °F /  -8.8 °C 30.37in /  1028.3hPa NNW 2.9mph /  4.7km/h 8.0mph /  12.9km/h 10% 0.00in /  0mm 763.0 W/m2
10:57 77.4 °F /  25.2 °C 16.5 °F /  -8.6 °C 30.37in /  1028.3hPa NNW 0.9mph /  1.4km/h 5.0mph /  8km/h 10% 0.00in /  0mm 770.0 W/m2
11:03 77.5 °F /  25.3 °C 16.7 °F /  -8.5 °C 30.36in /  1028hPa Calm     10% 0.00in /  0mm 786.0 W/m2
11:09 77.4 °F /  25.2 °C 16.5 °F /  -8.6 °C 30.36in /  1028hPa NE 6.0mph /  9.7km/h 6.0mph /  9.7km/h 10% 0.00in /  0mm 784.0 W/m2
11:15 77.5 °F /  25.3 °C 18.9 °F /  -7.3 °C 30.36in /  1028hPa North 2.9mph /  4.7km/h 4.0mph /  6.4km/h 11% 0.00in /  0mm 789.0 W/m2
11:21 77.7 °F /  25.4 °C 16.9 °F /  -8.4 °C 30.35in /  1027.7hPa North 0.9mph /  1.4km/h 8.0mph /  12.9km/h 10% 0.00in /  0mm 798.0 W/m2
11:27 78.1 °F /  25.6 °C 17.1 °F /  -8.3 °C 30.35in /  1027.7hPa West 0.9mph /  1.4km/h 7.0mph /  11.3km/h 10% 0.00in /  0mm 793.0 W/m2
11:33 78.1 °F /  25.6 °C 17.1 °F /  -8.3 °C 30.35in /  1027.7hPa Calm   1.0mph /  1.6km/h 10% 0.00in /  0mm 791.0 W/m2
11:39 78.3 °F /  25.7 °C 17.2 °F /  -8.2 °C 30.34in /  1027.3hPa NNE 4.0mph /  6.4km/h 6.0mph /  9.7km/h 10% 0.00in /  0mm 791.0 W/m2
11:46 78.4 °F /  25.8 °C 14.9 °F /  -9.5 °C 30.34in /  1027.3hPa Calm   5.0mph /  8km/h 9% 0.00in /  0mm 788.0 W/m2
11:52 78.6 °F /  25.9 °C 15.1 °F /  -9.4 °C 30.33in /  1027hPa NNE 4.9mph /  7.9km/h 5.0mph /  8km/h 9% 0.00in /  0mm 789.0 W/m2
11:58 78.6 °F /  25.9 °C 17.4 °F /  -8.1 °C 30.33in /  1027hPa Calm   4.0mph /  6.4km/h 10% 0.00in /  0mm 791.0 W/m2
12:04 78.8 °F /  26 °C 17.6 °F /  -8 °C 30.32in /  1026.6hPa NW 2.0mph /  3.2km/h 4.0mph /  6.4km/h 10% 0.00in /  0mm 784.0 W/m2
12:10 79.0 °F /  26.1 °C 17.8 °F /  -7.9 °C 30.32in /  1026.6hPa West 6.0mph /  9.7km/h 7.0mph /  11.3km/h 10% 0.00in /  0mm 784.0 W/m2
12:16 78.8 °F /  26 °C 17.6 °F /  -8 °C 30.32in /  1026.6hPa Calm   3.0mph /  4.8km/h 10% 0.00in /  0mm 784.0 W/m2
12:22 78.6 °F /  25.9 °C 15.1 °F /  -9.4 °C 30.32in /  1026.6hPa Calm   2.0mph /  3.2km/h 9% 0.00in /  0mm 779.0 W/m2
12:28 78.6 °F /  25.9 °C 17.4 °F /  -8.1 °C 30.31in /  1026.3hPa North 0.9mph /  1.4km/h 6.0mph /  9.7km/h 10% 0.00in /  0mm 773.0 W/m2
12:34 79.0 °F /  26.1 °C 17.8 °F /  -7.9 °C 30.31in /  1026.3hPa NNW 2.9mph /  4.7km/h 6.0mph /  9.7km/h 10% 0.00in /  0mm 770.0 W/m2
12:41 79.5 °F /  26.4 °C 18.1 °F /  -7.7 °C 30.30in /  1026hPa WSW 4.0mph /  6.4km/h 4.0mph /  6.4km/h 10% 0.00in /  0mm 761.0 W/m2
12:47 79.9 °F /  26.6 °C 18.5 °F /  -7.5 °C 30.30in /  1026hPa Calm   7.0mph /  11.3km/h 10% 0.00in /  0mm 752.0 W/m2
12:53 79.5 °F /  26.4 °C 15.8 °F /  -9 °C 30.29in /  1025.6hPa NNW 0.9mph /  1.4km/h 2.0mph /  3.2km/h 9% 0.00in /  0mm 745.0 W/m2
12:59 79.7 °F /  26.5 °C 15.8 °F /  -9 °C 30.29in /  1025.6hPa NNW 2.0mph /  3.2km/h 8.0mph /  12.9km/h 9% 0.00in /  0mm 744.0 W/m2
13:05 79.9 °F /  26.6 °C 18.5 °F /  -7.5 °C 30.29in /  1025.6hPa SW 2.0mph /  3.2km/h 7.0mph /  11.3km/h 10% 0.00in /  0mm 735.0 W/m2
13:11 79.9 °F /  26.6 °C 18.5 °F /  -7.5 °C 30.28in /  1025.3hPa North 2.9mph /  4.7km/h 5.0mph /  8km/h 10% 0.00in /  0mm 724.0 W/m2
13:18 79.9 °F /  26.6 °C 18.5 °F /  -7.5 °C 30.28in /  1025.3hPa NW 4.0mph /  6.4km/h 5.0mph /  8km/h 10% 0.00in /  0mm 717.0 W/m2
13:24 80.2 °F /  26.8 °C 16.3 °F /  -8.7 °C 30.28in /  1025.3hPa West 0.9mph /  1.4km/h 10.0mph /  16.1km/h 9% 0.00in /  0mm 708.0 W/m2
13:30 80.2 °F /  26.8 °C 16.3 °F /  -8.7 °C 30.28in /  1025.3hPa NNW 2.0mph /  3.2km/h 6.0mph /  9.7km/h 9% 0.00in /  0mm 696.0 W/m2
13:36 80.4 °F /  26.9 °C 16.3 °F /  -8.7 °C 30.27in /  1024.9hPa Calm   1.0mph /  1.6km/h 9% 0.00in /  0mm 682.0 W/m2
13:42 80.4 °F /  26.9 °C 16.3 °F /  -8.7 °C 30.27in /  1024.9hPa North 4.0mph /  6.4km/h 4.0mph /  6.4km/h 9% 0.00in /  0mm 668.0 W/m2
13:48 80.4 °F /  26.9 °C 16.3 °F /  -8.7 °C 30.27in /  1024.9hPa North 8.1mph /  13km/h 10.0mph /  16.1km/h 9% 0.00in /  0mm 647.0 W/m2
13:54 80.4 °F /  26.9 °C 16.3 °F /  -8.7 °C 30.27in /  1024.9hPa NNW 2.9mph /  4.7km/h 3.0mph /  4.8km/h 9% 0.00in /  0mm 636.0 W/m2
14:01 80.8 °F /  27.1 °C 16.7 °F /  -8.5 °C 30.26in /  1024.6hPa West 0.9mph /  1.4km/h 12.0mph /  19.3km/h 9% 0.00in /  0mm 624.0 W/m2
14:07 81.0 °F /  27.2 °C 16.9 °F /  -8.4 °C 30.26in /  1024.6hPa North 6.0mph /  9.7km/h 10.0mph /  16.1km/h 9% 0.00in /  0mm 610.0 W/m2
14:13 80.4 °F /  26.9 °C 16.3 °F /  -8.7 °C 30.26in /  1024.6hPa NNW 2.0mph /  3.2km/h 6.0mph /  9.7km/h 9% 0.00in /  0mm 591.0 W/m2
14:19 80.2 °F /  26.8 °C 16.3 °F /  -8.7 °C 30.26in /  1024.6hPa West 2.0mph /  3.2km/h 9.0mph /  14.5km/h 9% 0.00in /  0mm 573.0 W/m2
14:25 80.4 °F /  26.9 °C 16.3 °F /  -8.7 °C 30.26in /  1024.6hPa NW 2.0mph /  3.2km/h 4.0mph /  6.4km/h 9% 0.00in /  0mm 557.0 W/m2
14:31 80.8 °F /  27.1 °C 16.7 °F /  -8.5 °C 30.25in /  1024.3hPa NNE 2.9mph /  4.7km/h 6.0mph /  9.7km/h 9% 0.00in /  0mm 543.0 W/m2
14:37 80.8 °F /  27.1 °C 16.7 °F /  -8.5 °C 30.25in /  1024.3hPa NNE 2.0mph /  3.2km/h 5.0mph /  8km/h 9% 0.00in /  0mm 520.0 W/m2
14:43 81.0 °F /  27.2 °C 16.9 °F /  -8.4 °C 30.25in /  1024.3hPa WNW 4.0mph /  6.4km/h 7.0mph /  11.3km/h 9% 0.00in /  0mm 508.0 W/m2
14:49 81.1 °F /  27.3 °C 16.9 °F /  -8.4 °C 30.25in /  1024.3hPa NNW 2.9mph /  4.7km/h 5.0mph /  8km/h 9% 0.00in /  0mm 489.0 W/m2
14:56 81.3 °F /  27.4 °C 17.1 °F /  -8.3 °C 30.25in /  1024.3hPa WNW 0.9mph /  1.4km/h 10.0mph /  16.1km/h 9% 0.00in /  0mm 468.0 W/m2
15:02 81.1 °F /  27.3 °C 16.9 °F /  -8.4 °C 30.25in /  1024.3hPa NW 0.9mph /  1.4km/h 8.0mph /  12.9km/h 9% 0.00in /  0mm 448.0 W/m2
15:08 81.0 °F /  27.2 °C 16.9 °F /  -8.4 °C 30.25in /  1024.3hPa NW 0.9mph /  1.4km/h 5.0mph /  8km/h 9% 0.00in /  0mm 425.0 W/m2
15:14 80.8 °F /  27.1 °C 16.7 °F /  -8.5 °C 30.25in /  1024.3hPa NNE 2.9mph /  4.7km/h 7.0mph /  11.3km/h 9% 0.00in /  0mm 408.0 W/m2
15:20 80.4 °F /  26.9 °C 16.3 °F /  -8.7 °C 30.24in /  1023.9hPa NNW 0.9mph /  1.4km/h 5.0mph /  8km/h 9% 0.00in /  0mm 390.0 W/m2
15:26 80.6 °F /  27 °C 16.5 °F /  -8.6 °C 30.24in /  1023.9hPa WNW 2.0mph /  3.2km/h 3.0mph /  4.8km/h 9% 0.00in /  0mm 373.0 W/m2
15:33 80.8 °F /  27.1 °C 16.7 °F /  -8.5 °C 30.25in /  1024.3hPa Calm   4.0mph /  6.4km/h 9% 0.00in /  0mm 357.0 W/m2
15:39 81.0 °F /  27.2 °C 16.9 °F /  -8.4 °C 30.24in /  1023.9hPa NE 2.0mph /  3.2km/h 5.0mph /  8km/h 9% 0.00in /  0mm 341.0 W/m2
15:45 80.6 °F /  27 °C 16.5 °F /  -8.6 °C 30.24in /  1023.9hPa NW 4.0mph /  6.4km/h 6.0mph /  9.7km/h 9% 0.00in /  0mm 320.0 W/m2
15:51 80.2 °F /  26.8 °C 16.3 °F /  -8.7 °C 30.25in /  1024.3hPa SW 4.0mph /  6.4km/h 5.0mph /  8km/h 9% 0.00in /  0mm 299.0 W/m2
15:57 79.7 °F /  26.5 °C 15.8 °F /  -9 °C 30.25in /  1024.3hPa WSW 0.9mph /  1.4km/h 7.0mph /  11.3km/h 9% 0.00in /  0mm 278.0 W/m2
16:03 79.2 °F /  26.2 °C 15.4 °F /  -9.2 °C 30.25in /  1024.3hPa Calm   5.0mph /  8km/h 9% 0.00in /  0mm 239.0 W/m2
16:09 78.6 °F /  25.9 °C 15.1 °F /  -9.4 °C 30.25in /  1024.3hPa WSW 2.9mph /  4.7km/h 9.0mph /  14.5km/h 9% 0.00in /  0mm 62.0 W/m2
16:15 78.4 °F /  25.8 °C 14.9 °F /  -9.5 °C 30.25in /  1024.3hPa WSW 4.9mph /  7.9km/h 9.0mph /  14.5km/h 9% 0.00in /  0mm 58.0 W/m2
16:21 77.9 °F /  25.5 °C 14.5 °F /  -9.7 °C 30.26in /  1024.6hPa West 0.9mph /  1.4km/h 11.0mph /  17.7km/h 9% 0.00in /  0mm 54.0 W/m2
16:28 77.4 °F /  25.2 °C 14.2 °F /  -9.9 °C 30.26in /  1024.6hPa WSW 4.0mph /  6.4km/h 9.0mph /  14.5km/h 9% 0.00in /  0mm 100.0 W/m2
16:34 77.2 °F /  25.1 °C 14.0 °F /  -10 °C 30.26in /  1024.6hPa West 2.0mph /  3.2km/h 5.0mph /  8km/h 9% 0.00in /  0mm 72.0 W/m2
16:40 76.8 °F /  24.9 °C 13.6 °F /  -10.2 °C 30.26in /  1024.6hPa WSW 8.1mph /  13km/h 9.0mph /  14.5km/h 9% 0.00in /  0mm 51.0 W/m2
16:46 76.5 °F /  24.7 °C 15.8 °F /  -9 °C 30.26in /  1024.6hPa West 2.9mph /  4.7km/h 6.0mph /  9.7km/h 10% 0.00in /  0mm 67.0 W/m2
16:52 76.3 °F /  24.6 °C 15.6 °F /  -9.1 °C 30.27in /  1024.9hPa WSW 0.9mph /  1.4km/h 3.0mph /  4.8km/h 10% 0.00in /  0mm 47.0 W/m2
16:58 75.9 °F /  24.4 °C 15.4 °F /  -9.2 °C 30.27in /  1024.9hPa SSW 4.0mph /  6.4km/h 5.0mph /  8km/h 10% 0.00in /  0mm 39.0 W/m2
17:04 75.6 °F /  24.2 °C 15.1 °F /  -9.4 °C 30.27in /  1024.9hPa West 0.9mph /  1.4km/h 5.0mph /  8km/h 10% 0.00in /  0mm 39.0 W/m2
17:11 75.0 °F /  23.9 °C 14.7 °F /  -9.6 °C 30.27in /  1024.9hPa SW 2.0mph /  3.2km/h 6.0mph /  9.7km/h 10% 0.00in /  0mm 25.0 W/m2
17:17 74.7 °F /  23.7 °C 14.5 °F /  -9.7 °C 30.27in /  1024.9hPa WNW 4.0mph /  6.4km/h 5.0mph /  8km/h 10% 0.00in /  0mm 18.0 W/m2
17:23 74.1 °F /  23.4 °C 14.0 °F /  -10 °C 30.27in /  1024.9hPa West 0.9mph /  1.4km/h 6.0mph /  9.7km/h 10% 0.00in /  0mm 14.0 W/m2
17:29 73.8 °F /  23.2 °C 16.0 °F /  -8.9 °C 30.27in /  1024.9hPa Calm   3.0mph /  4.8km/h 11% 0.00in /  0mm 9.0 W/m2
17:35 73.2 °F /  22.9 °C 15.6 °F /  -9.1 °C 30.27in /  1024.9hPa Calm     11% 0.00in /  0mm 5.0 W/m2
17:41 72.7 °F /  22.6 °C 17.1 °F /  -8.3 °C 30.28in /  1025.3hPa Calm     12% 0.00in /  0mm 0.0 W/m2
17:47 72.0 °F /  22.2 °C 16.5 °F /  -8.6 °C 30.28in /  1025.3hPa Calm     12% 0.00in /  0mm 0.0 W/m2
17:53 71.1 °F /  21.7 °C 15.8 °F /  -9 °C 30.27in /  1024.9hPa Calm     12% 0.00in /  0mm 0.0 W/m2
18:00 70.2 °F /  21.2 °C 17.1 °F /  -8.3 °C 30.28in /  1025.3hPa Calm     13% 0.00in /  0mm 0.0 W/m2
18:06 69.3 °F /  20.7 °C 18.0 °F /  -7.8 °C 30.28in /  1025.3hPa Calm     14% 0.00in /  0mm 0.0 W/m2
18:12 68.4 °F /  20.2 °C 17.2 °F /  -8.2 °C 30.28in /  1025.3hPa Calm     14% 0.00in /  0mm 0.0 W/m2
18:18 67.5 °F /  19.7 °C 18.1 °F /  -7.7 °C 30.28in /  1025.3hPa Calm     15% 0.00in /  0mm 0.0 W/m2
18:24 66.7 °F /  19.3 °C 17.6 °F /  -8 °C 30.28in /  1025.3hPa Calm     15% 0.00in /  0mm 0.0 W/m2
18:30 65.7 °F /  18.7 °C 18.3 °F /  -7.6 °C 30.29in /  1025.6hPa Calm     16% 0.00in /  0mm 0.0 W/m2
18:36 64.9 °F /  18.3 °C 17.6 °F /  -8 °C 30.29in /  1025.6hPa Calm     16% 0.00in /  0mm 0.0 W/m2
18:43 64.0 °F /  17.8 °C 18.3 °F /  -7.6 °C 30.29in /  1025.6hPa Calm     17% 0.00in /  0mm 0.0 W/m2
18:49 63.1 °F /  17.3 °C 17.6 °F /  -8 °C 30.30in /  1026hPa Calm   1.0mph /  1.6km/h 17% 0.00in /  0mm 0.0 W/m2
18:55 62.4 °F /  16.9 °C 17.1 °F /  -8.3 °C 30.30in /  1026hPa Calm     17% 0.00in /  0mm 0.0 W/m2
19:01 61.9 °F /  16.6 °C 18.0 °F /  -7.8 °C 30.30in /  1026hPa Calm     18% 0.00in /  0mm 0.0 W/m2
19:07 61.2 °F /  16.2 °C 18.5 °F /  -7.5 °C 30.30in /  1026hPa Calm     19% 0.00in /  0mm 0.0 W/m2
19:13 60.6 °F /  15.9 °C 18.1 °F /  -7.7 °C 30.31in /  1026.3hPa Calm     19% 0.00in /  0mm 0.0 W/m2
19:19 60.1 °F /  15.6 °C 17.6 °F /  -8 °C 30.31in /  1026.3hPa Calm     19% 0.00in /  0mm 0.0 W/m2
19:26 59.5 °F /  15.3 °C 18.5 °F /  -7.5 °C 30.31in /  1026.3hPa Calm     20% 0.00in /  0mm 0.0 W/m2
19:32 59.0 °F /  15 °C 18.0 °F /  -7.8 °C 30.32in /  1026.6hPa WSW 2.0mph /  3.2km/h 3.0mph /  4.8km/h 20% 0.00in /  0mm 0.0 W/m2
19:38 58.6 °F /  14.8 °C 17.6 °F /  -8 °C 30.32in /  1026.6hPa Calm   1.0mph /  1.6km/h 20% 0.00in /  0mm 0.0 W/m2
19:44 58.5 °F /  14.7 °C 18.7 °F /  -7.4 °C 30.32in /  1026.6hPa Calm     21% 0.00in /  0mm 0.0 W/m2
19:50 58.1 °F /  14.5 °C 18.3 °F /  -7.6 °C 30.32in /  1026.6hPa Calm     21% 0.00in /  0mm 0.0 W/m2
19:56 57.7 °F /  14.3 °C 19.2 °F /  -7.1 °C 30.32in /  1026.6hPa Calm     22% 0.00in /  0mm 0.0 W/m2
20:02 57.6 °F /  14.2 °C 19.0 °F /  -7.2 °C 30.33in /  1027hPa Calm   1.0mph /  1.6km/h 22% 0.00in /  0mm 0.0 W/m2
20:09 57.0 °F /  13.9 °C 17.4 °F /  -8.1 °C 30.33in /  1027hPa Calm     21% 0.00in /  0mm 0.0 W/m2
20:15 56.8 °F /  13.8 °C 17.2 °F /  -8.2 °C 30.33in /  1027hPa Calm     21% 0.00in /  0mm 0.0 W/m2
20:21 56.5 °F /  13.6 °C 18.1 °F /  -7.7 °C 30.33in /  1027hPa Calm   2.0mph /  3.2km/h 22% 0.00in /  0mm 0.0 W/m2
20:27 56.5 °F /  13.6 °C 19.0 °F /  -7.2 °C 30.34in /  1027.3hPa Calm   1.0mph /  1.6km/h 23% 0.00in /  0mm 0.0 W/m2
20:33 56.3 °F /  13.5 °C 18.0 °F /  -7.8 °C 30.34in /  1027.3hPa Calm     22% 0.00in /  0mm 0.0 W/m2
20:39 56.5 °F /  13.6 °C 18.1 °F /  -7.7 °C 30.34in /  1027.3hPa Calm   2.0mph /  3.2km/h 22% 0.00in /  0mm 0.0 W/m2
20:46 56.5 °F /  13.6 °C 19.0 °F /  -7.2 °C 30.34in /  1027.3hPa SSE 0.9mph /  1.4km/h 1.0mph /  1.6km/h 23% 0.00in /  0mm 0.0 W/m2
20:52 56.3 °F /  13.5 °C 19.0 °F /  -7.2 °C 30.34in /  1027.3hPa Calm   3.0mph /  4.8km/h 23% 0.00in /  0mm 0.0 W/m2
20:58 56.1 °F /  13.4 °C 18.9 °F /  -7.3 °C 30.34in /  1027.3hPa East 4.0mph /  6.4km/h 4.0mph /  6.4km/h 23% 0.00in /  0mm 0.0 W/m2
21:04 55.9 °F /  13.3 °C 18.7 °F /  -7.4 °C 30.34in /  1027.3hPa ESE 0.9mph /  1.4km/h 2.0mph /  3.2km/h 23% 0.00in /  0mm 0.0 W/m2
21:10 55.9 °F /  13.3 °C 18.7 °F /  -7.4 °C 30.35in /  1027.7hPa Calm   1.0mph /  1.6km/h 23% 0.00in /  0mm 0.0 W/m2
21:16 55.9 °F /  13.3 °C 17.6 °F /  -8 °C 30.35in /  1027.7hPa Calm   1.0mph /  1.6km/h 22% 0.00in /  0mm 0.0 W/m2
21:22 55.9 °F /  13.3 °C 17.6 °F /  -8 °C 30.35in /  1027.7hPa ENE 0.9mph /  1.4km/h 5.0mph /  8km/h 22% 0.00in /  0mm 0.0 W/m2
21:28 56.1 °F /  13.4 °C 17.8 °F /  -7.9 °C 30.35in /  1027.7hPa Calm     22% 0.00in /  0mm 0.0 W/m2
21:34 56.1 °F /  13.4 °C 17.8 °F /  -7.9 °C 30.34in /  1027.3hPa ESE 0.9mph /  1.4km/h 2.0mph /  3.2km/h 22% 0.00in /  0mm 0.0 W/m2
21:41 56.1 °F /  13.4 °C 17.8 °F /  -7.9 °C 30.34in /  1027.3hPa Calm   1.0mph /  1.6km/h 22% 0.00in /  0mm 0.0 W/m2
21:47 56.1 °F /  13.4 °C 18.9 °F /  -7.3 °C 30.34in /  1027.3hPa Calm   2.0mph /  3.2km/h 23% 0.00in /  0mm 0.0 W/m2
21:53 55.9 °F /  13.3 °C 18.7 °F /  -7.4 °C 30.34in /  1027.3hPa East 0.9mph /  1.4km/h 1.0mph /  1.6km/h 23% 0.00in /  0mm 0.0 W/m2
21:59 55.8 °F /  13.2 °C 18.5 °F /  -7.5 °C 30.34in /  1027.3hPa ESE 0.9mph /  1.4km/h 1.0mph /  1.6km/h 23% 0.00in /  0mm 0.0 W/m2
22:05 55.6 °F /  13.1 °C 18.3 °F /  -7.6 °C 30.34in /  1027.3hPa East 0.9mph /  1.4km/h 1.0mph /  1.6km/h 23% 0.00in /  0mm 0.0 W/m2
22:11 55.2 °F /  12.9 °C 18.1 °F /  -7.7 °C 30.34in /  1027.3hPa East 2.0mph /  3.2km/h 2.0mph /  3.2km/h 23% 0.00in /  0mm 0.0 W/m2
22:17 55.0 °F /  12.8 °C 18.0 °F /  -7.8 °C 30.35in /  1027.7hPa Calm   1.0mph /  1.6km/h 23% 0.00in /  0mm 0.0 W/m2
22:23 54.9 °F /  12.7 °C 18.7 °F /  -7.4 °C 30.34in /  1027.3hPa Calm     24% 0.00in /  0mm 0.0 W/m2
22:30 54.7 °F /  12.6 °C 19.6 °F /  -6.9 °C 30.34in /  1027.3hPa Calm   1.0mph /  1.6km/h 25% 0.00in /  0mm 0.0 W/m2
22:36 54.3 °F /  12.4 °C 19.2 °F /  -7.1 °C 30.34in /  1027.3hPa Calm     25% 0.00in /  0mm 0.0 W/m2
22:42 54.0 °F /  12.2 °C 19.8 °F /  -6.8 °C 30.34in /  1027.3hPa Calm     26% 0.00in /  0mm 0.0 W/m2
22:48 53.4 °F /  11.9 °C 20.3 °F /  -6.5 °C 30.34in /  1027.3hPa Calm     27% 0.00in /  0mm 0.0 W/m2
22:54 53.1 °F /  11.7 °C 19.9 °F /  -6.7 °C 30.34in /  1027.3hPa Calm     27% 0.00in /  0mm 0.0 W/m2
23:00 52.9 °F /  11.6 °C 20.7 °F /  -6.3 °C 30.34in /  1027.3hPa Calm     28% 0.00in /  0mm 0.0 W/m2
23:06 52.5 °F /  11.4 °C 20.3 °F /  -6.5 °C 30.34in /  1027.3hPa Calm     28% 0.00in /  0mm 0.0 W/m2
23:12 52.3 °F /  11.3 °C 20.1 °F /  -6.6 °C 30.34in /  1027.3hPa Calm   2.0mph /  3.2km/h 28% 0.00in /  0mm 0.0 W/m2
23:18 52.2 °F /  11.2 °C 20.1 °F /  -6.6 °C 30.34in /  1027.3hPa Calm   1.0mph /  1.6km/h 28% 0.00in /  0mm 0.0 W/m2
23:24 52.2 °F /  11.2 °C 19.2 °F /  -7.1 °C 30.33in /  1027hPa Calm   1.0mph /  1.6km/h 27% 0.00in /  0mm 0.0 W/m2
23:30 52.2 °F /  11.2 °C 20.1 °F /  -6.6 °C 30.33in /  1027hPa Calm   1.0mph /  1.6km/h 28% 0.00in /  0mm 0.0 W/m2
23:36 52.0 °F /  11.1 °C 19.9 °F /  -6.7 °C 30.33in /  1027hPa Calm     28% 0.00in /  0mm 0.0 W/m2
23:42 51.8 °F /  11 °C 20.5 °F /  -6.4 °C 30.33in /  1027hPa Calm     29% 0.00in /  0mm 0.0 W/m2
23:48 51.6 °F /  10.9 °C 20.3 °F /  -6.5 °C 30.33in /  1027hPa Calm   1.0mph /  1.6km/h 29% 0.00in /  0mm 0.0 W/m2
23:54 51.4 °F /  10.8 °C 20.3 °F /  -6.5 °C 30.33in /  1027hPa Calm     29% 0.00in /  0mm 0.0 W/m2
Olympia, Windhoek, Namibia
Compliments of Weather Underground - 3 mb